Aviation Digital Data Service (ADDS)

Output produced by METARs form (0152 UTC 02 September 2014)
found at http://www.aviationweather.gov/adds/metars/
 
KDFW 012321Z 0200/0306 16015KT P6SM FEW070 
     FM021100 17015KT P6SM BKN015 
     FM021500 18015KT P6SM SCT025